createdAt,value
2022-10-07T00:00:30.971Z,10.67
2022-10-07T00:01:37.550Z,10.66
2022-10-07T00:02:31.074Z,10.65
2022-10-07T00:03:37.212Z,10.64
2022-10-07T00:04:31.265Z,10.63
2022-10-07T00:05:31.511Z,10.62
2022-10-07T00:06:37.178Z,10.61
2022-10-07T00:07:30.974Z,10.60
2022-10-07T00:08:31.011Z,10.60
2022-10-07T00:09:30.821Z,10.59
2022-10-07T00:10:30.753Z,10.59
2022-10-07T00:11:38.181Z,10.59
2022-10-07T00:12:30.897Z,10.58
2022-10-07T00:13:30.825Z,10.58
2022-10-07T00:14:30.737Z,10.57
2022-10-07T00:15:30.756Z,10.56
2022-10-07T00:16:31.009Z,10.54
2022-10-07T00:17:37.922Z,10.52
2022-10-07T00:18:30.721Z,10.51
2022-10-07T00:19:31.119Z,10.49
2022-10-07T00:20:30.692Z,10.48
2022-10-07T00:21:30.734Z,10.46
2022-10-07T00:22:37.023Z,10.45
2022-10-07T00:23:30.564Z,10.44
2022-10-07T00:24:31.733Z,10.44
2022-10-07T00:25:30.630Z,10.43
2022-10-07T00:26:30.620Z,10.42
2022-10-07T00:27:37.899Z,10.41
2022-10-07T00:28:30.641Z,10.39
2022-10-07T00:29:30.544Z,10.37
2022-10-07T00:30:36.844Z,10.35
2022-10-07T00:31:30.427Z,10.34
2022-10-07T00:32:30.581Z,10.32
2022-10-07T00:33:36.904Z,10.30
2022-10-07T00:34:30.410Z,10.29
2022-10-07T00:35:31.382Z,10.28
2022-10-07T00:36:30.430Z,10.26
2022-10-07T00:37:30.499Z,10.25
2022-10-07T00:38:36.630Z,10.23
2022-10-07T00:39:30.557Z,10.22
2022-10-07T00:40:31.000Z,10.20
2022-10-07T00:41:30.637Z,10.19
2022-10-07T00:42:30.438Z,10.17
2022-10-07T00:43:30.424Z,10.16
2022-10-07T00:44:37.635Z,10.15
2022-10-07T00:45:30.734Z,10.14
2022-10-07T00:46:30.342Z,10.12
2022-10-07T00:47:31.434Z,10.11
2022-10-07T00:48:30.666Z,10.10
2022-10-07T00:49:36.966Z,10.08
2022-10-07T00:50:30.327Z,10.07
2022-10-07T00:51:30.744Z,10.07
2022-10-07T00:52:30.194Z,10.06
2022-10-07T00:53:30.434Z,10.05
2022-10-07T00:54:30.135Z,10.05
2022-10-07T00:55:36.669Z,10.05
2022-10-07T00:56:30.302Z,10.05
2022-10-07T00:57:30.178Z,10.05
2022-10-07T00:58:30.654Z,10.06
2022-10-07T00:59:30.134Z,10.06
2022-10-07T01:00:30.118Z,10.06
2022-10-07T01:01:36.759Z,10.05
2022-10-07T01:02:30.476Z,10.05
2022-10-07T01:03:30.169Z,10.04
2022-10-07T01:04:31.141Z,10.04
2022-10-07T01:05:30.126Z,10.04
2022-10-07T01:06:29.978Z,10.03
2022-10-07T01:07:36.282Z,10.03
2022-10-07T01:08:30.436Z,10.03
2022-10-07T01:09:29.980Z,10.02
2022-10-07T01:10:30.001Z,10.02
2022-10-07T01:11:29.995Z,10.01
2022-10-07T01:12:36.477Z,10.01
2022-10-07T01:13:30.945Z,10.00
2022-10-07T01:14:30.170Z,9.99
2022-10-07T01:15:36.470Z,9.98
2022-10-07T01:16:29.971Z,9.96
2022-10-07T01:17:37.367Z,9.95
2022-10-07T01:18:29.891Z,9.94
2022-10-07T01:19:30.985Z,9.92
2022-10-07T01:20:29.871Z,9.91
2022-10-07T01:21:37.090Z,9.90
2022-10-07T01:22:29.811Z,9.89
2022-10-07T01:23:36.369Z,9.88
2022-10-07T01:24:31.068Z,9.87
2022-10-07T01:25:29.961Z,9.86
2022-10-07T01:26:30.021Z,9.85
2022-10-07T01:27:29.964Z,9.85
2022-10-07T01:28:30.050Z,9.84
2022-10-07T01:29:36.607Z,9.83
2022-10-07T01:30:30.843Z,9.82
2022-10-07T01:31:29.774Z,9.81
2022-10-07T01:32:30.703Z,9.81
2022-10-07T01:33:29.695Z,9.80
2022-10-07T01:34:36.059Z,9.80
2022-10-07T01:35:30.673Z,9.80
2022-10-07T01:36:29.983Z,9.79
2022-10-07T01:37:30.961Z,9.79
2022-10-07T01:38:29.592Z,9.78
2022-10-07T01:39:30.574Z,9.77
2022-10-07T01:40:36.348Z,9.76
2022-10-07T01:41:29.574Z,9.75
2022-10-07T01:42:30.639Z,9.74
2022-10-07T01:43:31.597Z,9.73
2022-10-07T01:44:29.634Z,9.72
2022-10-07T01:45:36.115Z,9.71
2022-10-07T01:46:29.541Z,9.71
2022-10-07T01:47:29.735Z,9.70
2022-10-07T01:48:29.513Z,9.69
2022-10-07T01:49:29.470Z,9.69
2022-10-07T01:50:36.801Z,9.68
2022-10-07T01:51:30.250Z,9.67
2022-10-07T01:52:29.600Z,9.66
2022-10-07T01:53:29.409Z,9.65
2022-10-07T01:54:29.433Z,9.64
2022-10-07T01:55:35.746Z,9.63
2022-10-07T01:56:30.540Z,9.62
2022-10-07T01:57:30.328Z,9.61
2022-10-07T01:58:29.380Z,9.60
2022-10-07T01:59:29.337Z,9.58
2022-10-07T02:00:35.707Z,9.57
2022-10-07T02:01:29.937Z,9.56
2022-10-07T02:02:29.427Z,9.55
2022-10-07T02:03:29.385Z,9.54
2022-10-07T02:04:29.271Z,9.54
2022-10-07T02:05:35.655Z,9.54
2022-10-07T02:06:29.231Z,9.54
2022-10-07T02:07:29.239Z,9.54
2022-10-07T02:08:29.353Z,9.54
2022-10-07T02:09:30.251Z,9.54
2022-10-07T02:10:29.212Z,9.54
2022-10-07T02:11:36.907Z,9.54
2022-10-07T02:12:29.320Z,9.55
2022-10-07T02:13:29.189Z,9.55
2022-10-07T02:14:29.191Z,9.55
2022-10-07T02:15:30.104Z,9.56
2022-10-07T02:16:35.654Z,9.56
2022-10-07T02:17:29.932Z,9.56
2022-10-07T02:18:29.266Z,9.55
2022-10-07T02:19:29.087Z,9.55
2022-10-07T02:20:29.075Z,9.54
2022-10-07T02:21:35.515Z,9.53
2022-10-07T02:22:29.121Z,9.52
2022-10-07T02:23:29.066Z,9.51
2022-10-07T02:24:29.020Z,9.49
2022-10-07T02:25:29.012Z,9.48
2022-10-07T02:26:35.347Z,9.47
2022-10-07T02:27:28.916Z,9.45
2022-10-07T02:28:29.142Z,9.44
2022-10-07T02:29:29.993Z,9.42
2022-10-07T02:30:28.873Z,9.41
2022-10-07T02:31:28.972Z,9.39
2022-10-07T02:32:35.586Z,9.38
2022-10-07T02:33:29.209Z,9.37
2022-10-07T02:34:29.269Z,9.35
2022-10-07T02:35:29.150Z,9.34
2022-10-07T02:36:29.022Z,9.33
2022-10-07T02:37:28.917Z,9.33
2022-10-07T02:38:35.148Z,9.32
2022-10-07T02:39:28.864Z,9.31
2022-10-07T02:40:28.867Z,9.30
2022-10-07T02:41:33.136Z,9.29
2022-10-07T02:42:28.861Z,9.28
2022-10-07T02:43:28.754Z,9.27
2022-10-07T02:44:35.028Z,9.26
2022-10-07T02:45:28.780Z,9.25
2022-10-07T02:46:29.769Z,9.25
2022-10-07T02:47:28.677Z,9.25
2022-10-07T02:48:28.935Z,9.25
2022-10-07T02:49:28.718Z,9.25
2022-10-07T02:50:34.963Z,9.25
2022-10-07T02:51:28.927Z,9.24
2022-10-07T02:52:28.677Z,9.24
2022-10-07T02:53:28.563Z,9.23
2022-10-07T02:54:28.746Z,9.22
2022-10-07T02:55:28.814Z,9.21
2022-10-07T02:56:34.834Z,9.20
2022-10-07T02:57:28.691Z,9.19
2022-10-07T02:58:28.639Z,9.18
2022-10-07T02:59:29.505Z,9.16
2022-10-07T03:00:28.788Z,9.15
2022-10-07T03:01:34.849Z,9.15
2022-10-07T03:02:28.590Z,9.15
2022-10-07T03:03:28.868Z,9.14
2022-10-07T03:04:28.505Z,9.14
2022-10-07T03:05:28.504Z,9.13
2022-10-07T03:06:28.760Z,9.12
2022-10-07T03:07:34.824Z,9.11
2022-10-07T03:08:28.514Z,9.10
2022-10-07T03:09:28.424Z,9.10
2022-10-07T03:10:28.337Z,9.09
2022-10-07T03:11:29.340Z,9.08
2022-10-07T03:12:29.202Z,9.07
2022-10-07T03:13:34.799Z,9.05
2022-10-07T03:14:28.363Z,9.04
2022-10-07T03:15:28.393Z,9.04
2022-10-07T03:16:29.412Z,9.03
2022-10-07T03:17:28.426Z,9.03
2022-10-07T03:18:28.608Z,9.03
2022-10-07T03:19:34.682Z,9.03
2022-10-07T03:20:28.280Z,9.03
2022-10-07T03:21:28.561Z,9.01
2022-10-07T03:22:28.382Z,9.00
2022-10-07T03:23:28.313Z,8.99
2022-10-07T03:24:34.504Z,8.98
2022-10-07T03:25:29.439Z,8.97
2022-10-07T03:26:28.246Z,8.96
2022-10-07T03:27:29.427Z,8.95
2022-10-07T03:28:28.341Z,8.95
2022-10-07T03:29:34.480Z,8.95
2022-10-07T03:30:28.106Z,8.95
2022-10-07T03:31:28.161Z,8.95
2022-10-07T03:32:28.191Z,8.95
2022-10-07T03:33:28.232Z,8.95
2022-10-07T03:34:28.119Z,8.95
2022-10-07T03:35:35.312Z,8.95
2022-10-07T03:36:28.459Z,8.95
2022-10-07T03:37:28.203Z,8.95
2022-10-07T03:38:28.018Z,8.96
2022-10-07T03:39:28.131Z,8.96
2022-10-07T03:40:27.999Z,8.96
2022-10-07T03:41:34.570Z,8.96
2022-10-07T03:42:29.170Z,8.96
2022-10-07T03:43:28.314Z,8.96
2022-10-07T03:44:28.988Z,8.96
2022-10-07T03:45:27.918Z,8.96
2022-10-07T03:46:34.191Z,8.96
2022-10-07T03:47:28.310Z,8.96
2022-10-07T03:48:28.283Z,8.95
2022-10-07T03:49:27.963Z,8.95
2022-10-07T03:50:27.992Z,8.94
2022-10-07T03:51:34.138Z,8.93
2022-10-07T03:52:27.902Z,8.92
2022-10-07T03:53:27.919Z,8.92
2022-10-07T03:54:27.813Z,8.91
2022-10-07T03:55:28.738Z,8.91
2022-10-07T03:56:27.883Z,8.91
2022-10-07T03:57:34.094Z,8.91
2022-10-07T03:58:28.127Z,8.90
2022-10-07T03:59:27.885Z,8.91
2022-10-07T04:00:27.767Z,8.91
2022-10-07T04:01:27.760Z,8.91
2022-10-07T04:02:34.129Z,8.91
2022-10-07T04:03:27.785Z,8.91
2022-10-07T04:04:27.943Z,8.91
2022-10-07T04:05:27.755Z,8.90
2022-10-07T04:06:27.912Z,8.89
2022-10-07T04:07:27.698Z,8.88
2022-10-07T04:08:33.974Z,8.86
2022-10-07T04:09:27.968Z,8.84
2022-10-07T04:10:27.582Z,8.81
2022-10-07T04:11:27.708Z,8.79
2022-10-07T04:12:27.852Z,8.76
2022-10-07T04:13:33.908Z,8.74
2022-10-07T04:14:27.631Z,8.73
2022-10-07T04:15:27.628Z,8.71
2022-10-07T04:16:28.522Z,8.70
2022-10-07T04:17:27.533Z,8.69
2022-10-07T04:18:28.244Z,8.67
2022-10-07T04:19:33.897Z,8.66
2022-10-07T04:20:28.399Z,8.65
2022-10-07T04:21:27.682Z,8.65
2022-10-07T04:22:27.718Z,8.65
2022-10-07T04:23:27.491Z,8.65
2022-10-07T04:24:34.084Z,8.65
2022-10-07T04:25:27.428Z,8.65
2022-10-07T04:26:27.629Z,8.66
2022-10-07T04:27:58.047Z,8.66
2022-10-07T04:28:28.710Z,8.66
2022-10-07T04:29:38.981Z,8.66
2022-10-07T04:30:27.368Z,8.66
2022-10-07T04:31:27.492Z,8.64
2022-10-07T04:32:27.378Z,8.63
2022-10-07T04:33:27.462Z,8.62
2022-10-07T04:34:33.906Z,8.61
2022-10-07T04:35:27.566Z,8.60
2022-10-07T04:36:27.659Z,8.59
2022-10-07T04:37:27.559Z,8.57
2022-10-07T04:38:28.599Z,8.56
2022-10-07T04:39:48.873Z,8.54
2022-10-07T04:40:35.680Z,8.53
2022-10-07T04:41:28.341Z,8.52
2022-10-07T04:42:28.287Z,8.52
2022-10-07T04:43:27.163Z,8.52
2022-10-07T04:44:27.315Z,8.52
2022-10-07T04:45:27.215Z,8.51
2022-10-07T04:46:33.894Z,8.51
2022-10-07T04:47:27.175Z,8.50
2022-10-07T04:48:27.354Z,8.49
2022-10-07T04:49:28.516Z,8.47
2022-10-07T04:50:27.482Z,8.46
2022-10-07T04:51:27.053Z,8.45
2022-10-07T04:52:33.732Z,8.44
2022-10-07T04:53:27.100Z,8.43
2022-10-07T04:54:27.019Z,8.43
2022-10-07T04:55:27.347Z,8.42
2022-10-07T04:56:27.006Z,8.42
2022-10-07T04:57:34.408Z,8.42
2022-10-07T04:58:27.242Z,8.42
2022-10-07T04:59:29.782Z,8.41
2022-10-07T05:00:26.990Z,8.41
2022-10-07T05:01:28.415Z,8.41
2022-10-07T05:02:34.539Z,8.41
2022-10-07T05:03:27.538Z,8.40
2022-10-07T05:04:27.975Z,8.40
2022-10-07T05:05:27.478Z,8.40
2022-10-07T05:06:30.958Z,8.40
2022-10-07T05:07:33.212Z,8.41
2022-10-07T05:08:26.825Z,8.41
2022-10-07T05:09:27.112Z,8.42
2022-10-07T05:10:27.027Z,8.43
2022-10-07T05:11:27.054Z,8.44
2022-10-07T05:12:26.747Z,8.44
2022-10-07T05:13:33.364Z,8.44
2022-10-07T05:14:27.076Z,8.44
2022-10-07T05:15:27.029Z,8.43
2022-10-07T05:16:27.761Z,8.42
2022-10-07T05:17:33.035Z,8.42
2022-10-07T05:18:33.290Z,8.41
2022-10-07T05:19:27.867Z,8.40
2022-10-07T05:20:26.987Z,8.39
2022-10-07T05:21:26.657Z,8.39
2022-10-07T05:22:26.803Z,8.39
2022-10-07T05:23:33.084Z,8.39
2022-10-07T05:24:27.642Z,8.40
2022-10-07T05:25:27.506Z,8.40
2022-10-07T05:26:27.620Z,8.42
2022-10-07T05:27:27.814Z,8.43
2022-10-07T05:28:26.633Z,8.44
2022-10-07T05:29:33.912Z,8.46
2022-10-07T05:30:27.343Z,8.47
2022-10-07T05:31:26.686Z,8.49
2022-10-07T05:32:27.853Z,8.51
2022-10-07T05:33:29.719Z,8.52
2022-10-07T05:34:33.602Z,8.54
2022-10-07T05:35:26.831Z,8.55
2022-10-07T05:36:26.556Z,8.56
2022-10-07T05:37:27.095Z,8.58
2022-10-07T05:38:26.706Z,8.59
2022-10-07T05:39:33.957Z,8.61
2022-10-07T05:40:27.667Z,8.62
2022-10-07T05:41:26.450Z,8.64
2022-10-07T05:42:27.531Z,8.64
2022-10-07T05:43:26.605Z,8.65
2022-10-07T05:44:27.130Z,8.65
2022-10-07T05:45:34.271Z,8.65
2022-10-07T05:46:26.585Z,8.65
2022-10-07T05:47:34.526Z,8.64
2022-10-07T05:48:27.125Z,8.64
2022-10-07T05:49:26.677Z,8.63
2022-10-07T05:50:32.573Z,8.62
2022-10-07T05:51:26.931Z,8.60
2022-10-07T05:52:26.522Z,8.60
2022-10-07T05:53:27.436Z,8.59
2022-10-07T05:54:33.606Z,8.59
2022-10-07T05:55:49.218Z,8.59
2022-10-07T05:56:26.400Z,8.60
2022-10-07T05:57:27.442Z,8.61
2022-10-07T05:58:27.075Z,8.62
2022-10-07T05:59:34.703Z,8.63
2022-10-07T06:00:33.550Z,8.65
2022-10-07T06:01:26.500Z,8.66
2022-10-07T06:02:27.190Z,8.68
2022-10-07T06:03:26.560Z,8.70
2022-10-07T06:04:26.690Z,8.72
2022-10-07T06:05:33.313Z,8.73
2022-10-07T06:06:26.156Z,8.75
2022-10-07T06:07:29.473Z,8.76
2022-10-07T06:08:26.945Z,8.78
2022-10-07T06:09:27.111Z,8.80
2022-10-07T06:10:26.319Z,8.81
2022-10-07T06:11:33.304Z,8.83
2022-10-07T06:12:25.999Z,8.85
2022-10-07T06:13:28.782Z,8.87
2022-10-07T06:14:27.604Z,8.88
2022-10-07T06:15:26.281Z,8.90
2022-10-07T06:16:35.110Z,8.92
2022-10-07T06:17:25.931Z,8.94
2022-10-07T06:18:27.025Z,8.96
2022-10-07T06:19:26.882Z,8.98
2022-10-07T06:20:26.640Z,9.00
2022-10-07T06:21:25.946Z,9.03
2022-10-07T06:22:32.192Z,9.05
2022-10-07T06:23:26.193Z,9.07
2022-10-07T06:24:26.960Z,9.09
2022-10-07T06:25:25.987Z,9.11
2022-10-07T06:26:39.145Z,9.13
2022-10-07T06:27:31.981Z,9.15
2022-10-07T06:28:32.959Z,9.17
2022-10-07T06:29:32.566Z,9.20
2022-10-07T06:30:26.114Z,9.22
2022-10-07T06:31:26.079Z,9.24
2022-10-07T06:32:37.839Z,9.26
2022-10-07T06:33:25.733Z,9.28
2022-10-07T06:34:31.995Z,9.29
2022-10-07T06:35:25.786Z,9.31
2022-10-07T06:36:28.666Z,9.33
2022-10-07T06:37:25.646Z,9.34
2022-10-07T06:38:26.112Z,9.36
2022-10-07T06:39:59.707Z,10.54
2022-10-07T06:40:58.336Z,10.09
2022-10-07T06:41:58.039Z,9.81
2022-10-07T06:42:59.791Z,9.65
2022-10-07T06:43:58.179Z,9.58
2022-10-07T06:45:06.102Z,9.54
2022-10-07T06:45:58.301Z,9.53
2022-10-07T06:47:07.855Z,9.54
2022-10-07T06:48:00.281Z,9.55
2022-10-07T06:48:58.018Z,9.57
2022-10-07T06:49:58.011Z,9.59
2022-10-07T06:51:05.394Z,9.61
2022-10-07T06:51:58.632Z,9.63
2022-10-07T06:52:57.943Z,9.66
2022-10-07T06:53:57.848Z,9.68
2022-10-07T06:54:57.882Z,9.70
2022-10-07T06:56:04.219Z,9.72
2022-10-07T06:56:58.462Z,9.74
2022-10-07T06:57:58.352Z,9.76
2022-10-07T06:58:57.956Z,9.79
2022-10-07T06:59:59.139Z,9.81
2022-10-07T07:01:04.150Z,9.82
2022-10-07T07:01:58.088Z,9.84
2022-10-07T07:02:57.824Z,9.86
2022-10-07T07:03:58.528Z,9.87
2022-10-07T07:04:58.690Z,9.89
2022-10-07T07:06:03.980Z,9.91
2022-10-07T07:06:59.046Z,9.94
2022-10-07T07:07:58.837Z,9.96
2022-10-07T07:08:58.593Z,9.99
2022-10-07T07:09:57.705Z,10.01
2022-10-07T07:11:04.243Z,10.04
2022-10-07T07:11:57.694Z,10.06
2022-10-07T07:12:57.792Z,10.09
2022-10-07T07:13:57.649Z,10.11
2022-10-07T07:14:57.929Z,10.14
2022-10-07T07:15:57.549Z,10.16
2022-10-07T07:16:57.722Z,10.19
2022-10-07T07:17:57.910Z,10.22
2022-10-07T07:18:57.678Z,10.24
2022-10-07T07:19:58.634Z,10.27
2022-10-07T07:20:57.759Z,10.30
2022-10-07T07:22:03.705Z,10.33
2022-10-07T07:22:57.504Z,10.35
2022-10-07T07:23:57.505Z,10.38
2022-10-07T07:24:57.585Z,10.40
2022-10-07T07:25:57.484Z,10.43
2022-10-07T07:26:58.389Z,10.45
2022-10-07T07:28:03.800Z,10.48
2022-10-07T07:28:57.394Z,10.50
2022-10-07T07:29:57.824Z,10.53
2022-10-07T07:30:58.496Z,10.55
2022-10-07T07:31:57.632Z,10.58
2022-10-07T07:33:03.718Z,10.61
2022-10-07T07:33:57.398Z,10.63
2022-10-07T07:34:57.738Z,10.66
2022-10-07T07:35:58.457Z,10.69
2022-10-07T07:36:59.460Z,10.72
2022-10-07T07:38:03.684Z,10.75
2022-10-07T07:38:58.363Z,10.78
2022-10-07T07:39:57.751Z,10.81
2022-10-07T07:40:57.341Z,10.84
2022-10-07T07:41:57.867Z,10.87
2022-10-07T07:42:57.484Z,10.89
2022-10-07T07:44:03.888Z,10.92
2022-10-07T07:44:58.175Z,10.94
2022-10-07T07:45:58.060Z,10.97
2022-10-07T07:46:58.275Z,10.99
2022-10-07T07:47:57.180Z,11.02
2022-10-07T07:49:03.562Z,11.05
2022-10-07T07:49:58.120Z,11.08
2022-10-07T07:50:57.223Z,11.11
2022-10-07T07:51:58.145Z,11.13
2022-10-07T07:52:57.593Z,11.16
2022-10-07T07:53:57.761Z,11.18
2022-10-07T07:55:03.692Z,11.21
2022-10-07T07:55:57.135Z,11.23
2022-10-07T07:56:57.167Z,11.26
2022-10-07T07:57:57.451Z,11.28
2022-10-07T07:58:58.042Z,11.31
2022-10-07T08:00:06.202Z,11.34
2022-10-07T08:00:57.250Z,11.37
2022-10-07T08:01:57.296Z,11.40
2022-10-07T08:02:59.030Z,11.42
2022-10-07T08:03:57.031Z,11.45
2022-10-07T08:04:57.128Z,11.48
2022-10-07T08:06:04.392Z,11.51
2022-10-07T08:06:57.214Z,11.54
2022-10-07T08:07:57.013Z,11.57
2022-10-07T08:09:03.303Z,11.60
2022-10-07T08:09:57.246Z,11.62
2022-10-07T08:10:56.846Z,11.65
2022-10-07T08:12:04.117Z,11.68
2022-10-07T08:12:58.119Z,11.71
2022-10-07T08:13:56.843Z,11.74
2022-10-07T08:14:56.927Z,11.77
2022-10-07T08:15:56.846Z,11.80
2022-10-07T08:17:03.149Z,11.83
2022-10-07T08:17:56.813Z,11.86
2022-10-07T08:18:56.828Z,11.90
2022-10-07T08:19:57.826Z,11.94
2022-10-07T08:20:57.022Z,11.98
2022-10-07T08:22:03.346Z,12.02
2022-10-07T08:22:58.989Z,12.06
2022-10-07T08:23:57.752Z,12.10
2022-10-07T08:24:57.050Z,12.14
2022-10-07T08:25:56.953Z,12.18
2022-10-07T08:27:03.323Z,12.22
2022-10-07T08:27:56.969Z,12.26
2022-10-07T08:28:56.636Z,12.29
2022-10-07T08:29:57.004Z,12.33
2022-10-07T08:30:56.654Z,12.37
2022-10-07T08:31:56.683Z,12.41
2022-10-07T08:33:03.141Z,12.45
2022-10-07T08:33:56.692Z,12.49
2022-10-07T08:34:56.715Z,12.52
2022-10-07T08:35:56.817Z,12.56
2022-10-07T08:36:56.534Z,12.60
2022-10-07T08:38:03.167Z,12.64
2022-10-07T08:38:57.447Z,12.68
2022-10-07T08:39:57.551Z,12.71
2022-10-07T08:40:57.185Z,12.75
2022-10-07T08:41:56.492Z,12.79
2022-10-07T08:42:56.801Z,12.83
2022-10-07T08:44:06.233Z,12.87
2022-10-07T08:44:57.892Z,12.91
2022-10-07T08:45:57.751Z,12.95
2022-10-07T08:46:57.856Z,13.00
2022-10-07T08:47:56.448Z,13.04
2022-10-07T08:49:09.110Z,13.08
2022-10-07T08:49:56.548Z,13.13
2022-10-07T08:50:56.714Z,13.17
2022-10-07T08:51:56.395Z,13.22
2022-10-07T08:52:56.309Z,13.27
2022-10-07T08:54:02.777Z,13.31
2022-10-07T08:55:00.343Z,13.36
2022-10-07T08:55:56.329Z,13.40
2022-10-07T08:56:56.558Z,13.44
2022-10-07T08:57:56.343Z,13.48
2022-10-07T08:59:04.746Z,13.53
2022-10-07T08:59:56.267Z,13.57
2022-10-07T09:00:56.339Z,13.61
2022-10-07T09:01:56.164Z,13.65
2022-10-07T09:02:56.293Z,13.69
2022-10-07T09:03:56.175Z,13.73
2022-10-07T09:05:03.441Z,13.78
2022-10-07T09:05:56.172Z,13.83
2022-10-07T09:06:56.234Z,13.87
2022-10-07T09:07:56.721Z,13.92
2022-10-07T09:09:00.350Z,13.97
2022-10-07T09:10:04.403Z,14.02
2022-10-07T09:10:58.060Z,14.07
2022-10-07T09:11:57.575Z,14.12
2022-10-07T09:12:57.034Z,14.16
2022-10-07T09:13:56.378Z,14.21
2022-10-07T09:14:56.293Z,14.26
2022-10-07T09:16:03.695Z,14.30
2022-10-07T09:17:03.538Z,14.34
2022-10-07T09:17:56.572Z,14.38
2022-10-07T09:18:56.486Z,14.42
2022-10-07T09:19:56.777Z,14.46
2022-10-07T09:21:03.739Z,14.50
2022-10-07T09:21:57.077Z,14.53
2022-10-07T09:22:57.077Z,14.57
2022-10-07T09:23:56.209Z,14.60
2022-10-07T09:24:57.191Z,14.64
2022-10-07T09:26:03.917Z,14.68
2022-10-07T09:26:58.327Z,14.72
2022-10-07T09:27:55.905Z,14.75
2022-10-07T09:29:02.312Z,14.79
2022-10-07T09:29:56.665Z,14.83
2022-10-07T09:31:03.512Z,14.86
2022-10-07T09:31:56.858Z,14.90
2022-10-07T09:32:55.888Z,14.93
2022-10-07T09:33:57.016Z,14.96
2022-10-07T09:34:58.311Z,14.99
2022-10-07T09:35:57.639Z,15.02
2022-10-07T09:37:04.338Z,15.05
2022-10-07T09:37:57.866Z,15.08
2022-10-07T09:38:57.144Z,15.10
2022-10-07T09:39:56.661Z,15.13
2022-10-07T09:40:56.987Z,15.16
2022-10-07T09:41:56.124Z,15.19
2022-10-07T09:43:02.204Z,15.22
2022-10-07T09:43:56.074Z,15.25
2022-10-07T09:44:57.110Z,15.28
2022-10-07T09:45:55.911Z,15.31
2022-10-07T09:46:57.584Z,15.33
2022-10-07T09:47:56.013Z,15.35
2022-10-07T09:49:03.150Z,15.37
2022-10-07T09:49:57.548Z,15.39
2022-10-07T09:50:55.991Z,15.41
2022-10-07T09:51:56.016Z,15.43
2022-10-07T09:52:55.708Z,15.45
2022-10-07T09:54:25.597Z,16.66
2022-10-07T09:55:31.159Z,16.22
2022-10-07T09:56:32.749Z,15.95
2022-10-07T09:57:25.795Z,15.81
2022-10-07T09:58:25.780Z,15.75
2022-10-07T09:59:31.383Z,15.73
2022-10-07T10:00:24.690Z,15.73
2022-10-07T10:01:24.964Z,15.75
2022-10-07T10:02:25.434Z,15.77
2022-10-07T10:03:25.015Z,15.80
2022-10-07T10:04:26.422Z,15.83
2022-10-07T10:05:31.044Z,15.86
2022-10-07T10:06:25.648Z,15.90
2022-10-07T10:07:25.754Z,15.93
2022-10-07T10:08:25.883Z,15.96
2022-10-07T10:09:25.733Z,16.00
2022-10-07T10:10:32.803Z,16.03
2022-10-07T10:11:32.430Z,16.06
2022-10-07T10:12:24.613Z,16.09
2022-10-07T10:13:25.895Z,16.12
2022-10-07T10:14:25.617Z,16.16
2022-10-07T10:16:08.951Z,17.37
2022-10-07T10:17:10.110Z,16.94
2022-10-07T10:18:14.103Z,16.67
2022-10-07T10:19:10.146Z,16.53
2022-10-07T10:20:09.117Z,16.46
2022-10-07T10:21:15.592Z,16.44
2022-10-07T10:22:09.880Z,16.44
2022-10-07T10:23:08.880Z,16.47
2022-10-07T10:24:08.962Z,16.50
2022-10-07T10:25:08.797Z,16.53
2022-10-07T10:26:17.216Z,16.57
2022-10-07T10:27:08.797Z,16.61
2022-10-07T10:28:08.819Z,16.64
2022-10-07T10:29:08.791Z,16.68
2022-10-07T10:30:15.034Z,16.70
2022-10-07T10:31:15.982Z,16.73
2022-10-07T10:32:09.037Z,16.76
2022-10-07T10:33:10.067Z,16.78
2022-10-07T10:34:08.946Z,16.81
2022-10-07T10:35:08.707Z,16.84
2022-10-07T10:36:14.948Z,16.86
2022-10-07T10:37:13.691Z,16.89
2022-10-07T10:38:10.087Z,16.92
2022-10-07T10:39:09.793Z,16.94
2022-10-07T10:40:09.631Z,16.97
2022-10-07T10:41:16.023Z,16.99
2022-10-07T10:42:14.974Z,17.01
2022-10-07T10:43:08.620Z,17.03
2022-10-07T10:44:09.702Z,17.05
2022-10-07T10:45:08.772Z,17.08
2022-10-07T10:46:08.577Z,17.10
2022-10-07T10:47:09.593Z,17.12
2022-10-07T10:48:15.079Z,17.14
2022-10-07T10:49:09.606Z,17.16
2022-10-07T10:50:08.542Z,17.18
2022-10-07T10:51:08.718Z,17.21
2022-10-07T10:52:13.234Z,17.23
2022-10-07T10:53:08.767Z,17.27
2022-10-07T10:54:14.737Z,17.30
2022-10-07T10:55:08.541Z,17.33
2022-10-07T10:56:08.473Z,17.37
2022-10-07T10:57:08.774Z,17.41
2022-10-07T10:58:09.933Z,17.44
2022-10-07T10:59:08.967Z,17.47
2022-10-07T11:00:14.695Z,17.50
2022-10-07T11:01:08.351Z,17.54
2022-10-07T11:02:08.540Z,17.57
2022-10-07T11:03:08.670Z,17.61
2022-10-07T11:04:09.038Z,17.65
2022-10-07T11:05:09.253Z,17.69
2022-10-07T11:06:16.528Z,17.72
2022-10-07T11:07:08.346Z,17.76
2022-10-07T11:08:09.355Z,17.79
2022-10-07T11:09:09.072Z,17.81
2022-10-07T11:10:09.607Z,17.83
2022-10-07T11:11:14.733Z,17.85
2022-10-07T11:12:08.125Z,17.86
2022-10-07T11:13:08.404Z,17.88
2022-10-07T11:14:08.296Z,17.90
2022-10-07T11:15:09.184Z,17.92
2022-10-07T11:16:08.527Z,17.93
2022-10-07T11:17:15.535Z,17.95
2022-10-07T11:18:08.431Z,17.96
2022-10-07T11:19:08.187Z,17.98
2022-10-07T11:20:08.242Z,17.99
2022-10-07T11:21:08.746Z,18.00
2022-10-07T11:22:14.373Z,18.02
2022-10-07T11:23:08.851Z,18.04
2022-10-07T11:24:08.224Z,18.06
2022-10-07T11:25:08.348Z,18.08
2022-10-07T11:26:09.061Z,18.11
2022-10-07T11:27:08.248Z,18.14
2022-10-07T11:28:14.445Z,18.17
2022-10-07T11:29:08.487Z,18.20
2022-10-07T11:30:08.035Z,18.22
2022-10-07T11:31:08.188Z,18.25
2022-10-07T11:32:08.049Z,18.27
2022-10-07T11:33:09.035Z,18.29
2022-10-07T11:34:14.286Z,18.31
2022-10-07T11:35:08.097Z,18.33
2022-10-07T11:36:09.020Z,18.35
2022-10-07T11:37:09.078Z,18.37
2022-10-07T11:38:11.068Z,18.39
2022-10-07T11:39:08.173Z,18.41
2022-10-07T11:40:15.320Z,18.43
2022-10-07T11:41:07.912Z,18.44
2022-10-07T11:42:07.992Z,18.45
2022-10-07T11:43:08.843Z,18.47
2022-10-07T11:44:09.225Z,18.48
2022-10-07T11:45:08.936Z,18.49
2022-10-07T11:46:14.381Z,18.51
2022-10-07T11:47:08.034Z,18.52
2022-10-07T11:48:07.922Z,18.54
2022-10-07T11:49:08.076Z,18.56
2022-10-07T11:50:08.051Z,18.57
2022-10-07T11:51:08.021Z,18.59
2022-10-07T11:52:14.621Z,18.61
2022-10-07T11:53:07.752Z,18.62
2022-10-07T11:54:08.740Z,18.65
2022-10-07T11:55:09.884Z,18.67
2022-10-07T11:56:07.752Z,18.70
2022-10-07T11:57:13.978Z,18.72
2022-10-07T11:58:07.901Z,18.74
2022-10-07T11:59:08.689Z,18.77
2022-10-07T12:00:07.741Z,18.79
2022-10-07T12:01:08.777Z,18.81
2022-10-07T12:02:09.385Z,18.83
2022-10-07T12:03:14.112Z,18.85
2022-10-07T12:04:07.634Z,18.87
2022-10-07T12:05:08.703Z,18.88
2022-10-07T12:06:07.778Z,18.90
2022-10-07T12:07:07.593Z,18.90
2022-10-07T12:08:08.700Z,18.92
2022-10-07T12:09:16.161Z,18.93
2022-10-07T12:10:08.953Z,18.94
2022-10-07T12:11:08.743Z,18.96
2022-10-07T12:12:13.884Z,18.99
2022-10-07T12:13:08.194Z,19.01
2022-10-07T12:14:08.863Z,19.04
2022-10-07T12:15:17.951Z,19.06
2022-10-07T12:16:07.620Z,19.09
2022-10-07T12:17:07.335Z,19.12
2022-10-07T12:18:07.564Z,19.15
2022-10-07T12:19:07.444Z,19.18
2022-10-07T12:20:13.548Z,19.21
2022-10-07T12:21:07.303Z,19.23
2022-10-07T12:22:08.294Z,19.25
2022-10-07T12:23:07.541Z,19.27
2022-10-07T12:24:08.555Z,19.28
2022-10-07T12:25:11.170Z,19.29
2022-10-07T12:26:14.852Z,19.31
2022-10-07T12:27:07.275Z,19.33
2022-10-07T12:28:08.302Z,19.35
2022-10-07T12:29:07.470Z,19.38
2022-10-07T12:30:07.196Z,19.41
2022-10-07T12:31:14.612Z,19.44
2022-10-07T12:32:13.669Z,19.47
2022-10-07T12:33:07.142Z,19.51
2022-10-07T12:34:07.146Z,19.55
2022-10-07T12:35:07.263Z,19.59
2022-10-07T12:36:13.354Z,19.63
2022-10-07T12:37:07.104Z,19.68
2022-10-07T12:38:07.058Z,19.73
2022-10-07T12:39:08.047Z,19.78
2022-10-07T12:40:07.723Z,19.83
2022-10-07T12:41:13.493Z,19.89
2022-10-07T12:42:08.082Z,19.95
2022-10-07T12:43:07.395Z,20.00
2022-10-07T12:44:06.979Z,20.05
2022-10-07T12:45:07.047Z,20.10
2022-10-07T12:46:13.333Z,20.15
2022-10-07T12:47:07.795Z,20.20
2022-10-07T12:48:07.211Z,20.27
2022-10-07T12:49:07.002Z,20.35
2022-10-07T12:50:07.296Z,20.44
2022-10-07T12:51:13.228Z,20.56
2022-10-07T12:52:08.501Z,20.72
2022-10-07T12:53:07.170Z,21.00
2022-10-07T12:54:07.974Z,21.58
2022-10-07T12:55:07.885Z,22.63
2022-10-07T12:56:07.727Z,23.98
2022-10-07T12:57:14.589Z,25.39
2022-10-07T12:58:06.940Z,26.71
2022-10-07T12:59:13.107Z,27.86
2022-10-07T13:00:07.130Z,28.86
2022-10-07T13:01:06.844Z,29.72
2022-10-07T13:02:13.180Z,30.47
2022-10-07T13:03:06.849Z,31.11
2022-10-07T13:04:11.696Z,31.65
2022-10-07T13:05:06.763Z,32.11
2022-10-07T13:06:09.222Z,32.51